Terminal Aerodrome Forecast
Issued by NWS Wilmington, OH

Current Version | Previous Version | Graphics & Text | Print | Product List | Glossary On
Versions: 1 2 3 4 5 6 7 8 9 10 11 12 13 14 15 16 17 18 19 20
000
FTUS41 KILN 312331
TAFILN
TAF
KILN 312331Z 0100/0124 24006KT P6SM VCTS BKN040CB
     FM010100 23003KT P6SM FEW050 SCT250
     FM010500 00000KT 3SM BR SCT250
      TEMPO 0109/0112 1SM BR
     FM011400 24004KT P6SM SCT025
     FM011800 25006KT P6SM BKN040=

USA.gov is the U.S. government's official web portal to all federal, state and local government web resources and services.